Terminal Aerodrome Forecast
Issued by NWS

Home | Current Version | Previous Version | Text Only | Print | Product List | Glossary On
Versions: 1 2 3 4 5 6 7 8 9 10 11 12 13 14 15
319
FTUS45 KSLC 221120
TAFOGD
TAF
KOGD 221120Z 2212/2312 18006KT P6SM SCT060 BKN120
     FM221700 19009KT P6SM VCSH SCT040 BKN080
     FM222100 18006KT P6SM VCTS SCT040CB BKN080
     FM230100 18006KT P6SM VCSH SCT040 BKN080=

USA.gov is the U.S. government's official web portal to all federal, state and local government web resources and services.